Terminal Aerodrome Forecast
Issued by NWS Northern Indiana

Home | Current Version | Previous Version | Graphics & Text | Print | Product List | Glossary On
Versions: 1 2 3 4 5 6 7 8 9 10 11 12 13 14 15 16 17
000
FTUS43 KIWX 221722 AAA
TAFFWA
TAF AMD
KFWA 221722Z 2217/2318 28006KT P6SM BKN050
     FM230200 VRB03KT P6SM SCT100
     FM231100 00000KT P6SM SCT035
     FM231500 26005KT P6SM SCT150=

USA.gov is the U.S. government's official web portal to all federal, state and local government web resources and services.